createdAt,value
2019-04-03T00:01:12.499Z,9.50
2019-04-03T00:03:16.467Z,9.50
2019-04-03T00:05:20.411Z,9.50
2019-04-03T00:07:24.303Z,9.50
2019-04-03T00:09:28.395Z,9.50
2019-04-03T00:11:32.265Z,9.50
2019-04-03T00:13:36.174Z,9.40
2019-04-03T00:15:40.039Z,9.40
2019-04-03T00:17:45.637Z,9.30
2019-04-03T00:19:49.389Z,9.40
2019-04-03T00:21:53.398Z,9.30
2019-04-03T00:23:57.262Z,9.30
2019-04-03T00:26:01.121Z,9.30
2019-04-03T00:28:05.075Z,9.30
2019-04-03T00:30:10.653Z,9.30
2019-04-03T00:32:14.661Z,9.20
2019-04-03T00:34:18.620Z,9.30
2019-04-03T00:36:23.314Z,9.20
2019-04-03T00:38:27.823Z,9.20
2019-04-03T00:40:31.664Z,9.20
2019-04-03T00:42:35.587Z,9.10
2019-04-03T00:44:39.475Z,9.10
2019-04-03T00:46:43.339Z,9.10
2019-04-03T00:48:47.237Z,9.10
2019-04-03T00:50:51.098Z,9.10
2019-04-03T00:52:57.081Z,9.10
2019-04-03T00:55:01.036Z,9.10
2019-04-03T00:57:04.957Z,9.00
2019-04-03T00:59:08.895Z,9.00
2019-04-03T01:01:22.794Z,9.00
2019-04-03T01:03:28.173Z,9.00
2019-04-03T01:05:32.198Z,8.90
2019-04-03T01:07:36.078Z,8.80
2019-04-03T01:09:39.950Z,8.70
2019-04-03T01:11:43.856Z,8.70
2019-04-03T01:13:47.895Z,8.70
2019-04-03T01:15:51.950Z,8.70
2019-04-03T01:17:56.039Z,8.60
2019-04-03T01:19:59.903Z,8.60
2019-04-03T01:22:03.760Z,8.60
2019-04-03T01:24:08.441Z,8.60
2019-04-03T01:26:12.450Z,8.60
2019-04-03T01:28:16.301Z,8.50
2019-04-03T01:30:20.123Z,8.50
2019-04-03T01:32:24.016Z,8.40
2019-04-03T01:34:27.881Z,8.40
2019-04-03T01:36:31.754Z,8.30
2019-04-03T01:38:35.649Z,8.40
2019-04-03T01:40:39.511Z,8.40
2019-04-03T01:42:43.367Z,8.40
2019-04-03T01:44:47.403Z,8.40
2019-04-03T01:46:51.304Z,8.30
2019-04-03T01:48:55.164Z,8.20
2019-04-03T01:50:59.600Z,8.30
2019-04-03T01:53:04.136Z,8.40
2019-04-03T01:55:08.066Z,8.30
2019-04-03T01:57:11.917Z,8.20
2019-04-03T01:59:15.822Z,8.20
2019-04-03T02:01:19.670Z,8.20
2019-04-03T02:03:23.545Z,8.20
2019-04-03T02:05:27.384Z,8.20
2019-04-03T02:07:31.250Z,8.20
2019-04-03T02:09:35.078Z,8.20
2019-04-03T02:11:39.454Z,8.20
2019-04-03T02:13:43.711Z,8.20
2019-04-03T02:15:47.618Z,8.10
2019-04-03T02:17:54.157Z,8.10
2019-04-03T02:19:57.115Z,8.10
2019-04-03T02:22:01.284Z,8.10
2019-04-03T02:24:05.212Z,8.10
2019-04-03T02:26:09.117Z,8.10
2019-04-03T02:28:13.097Z,8.10
2019-04-03T02:30:17.328Z,8.10
2019-04-03T02:32:23.215Z,8.10
2019-04-03T02:34:26.863Z,8.10
2019-04-03T02:36:30.867Z,8.00
2019-04-03T02:38:34.774Z,8.00
2019-04-03T02:40:38.547Z,8.00
2019-04-03T02:42:42.892Z,8.00
2019-04-03T02:44:48.450Z,7.90
2019-04-03T02:46:52.302Z,7.90
2019-04-03T02:48:56.234Z,7.90
2019-04-03T02:51:00.593Z,8.00
2019-04-03T02:53:06.871Z,8.00
2019-04-03T02:55:10.747Z,7.90
2019-04-03T02:57:17.748Z,7.90
2019-04-03T02:59:20.308Z,8.00
2019-04-03T03:01:24.289Z,7.90
2019-04-03T03:03:28.134Z,7.90
2019-04-03T03:05:31.989Z,7.90
2019-04-03T03:07:36.570Z,7.90
2019-04-03T03:09:43.440Z,8.00
2019-04-03T03:11:47.283Z,8.00
2019-04-03T03:13:51.704Z,8.00
2019-04-03T03:15:56.462Z,8.00
2019-04-03T03:18:00.481Z,7.90
2019-04-03T03:20:07.840Z,7.90
2019-04-03T03:22:14.704Z,7.90
2019-04-03T03:24:18.515Z,7.80
2019-04-03T03:26:23.265Z,7.90
2019-04-03T03:28:27.601Z,7.90
2019-04-03T03:30:41.345Z,7.90
2019-04-03T03:32:38.560Z,7.90
2019-04-03T03:34:53.851Z,7.80
2019-04-03T03:36:49.051Z,7.80
2019-04-03T03:38:54.273Z,7.80
2019-04-03T03:40:58.834Z,7.80
2019-04-03T03:43:05.061Z,7.80
2019-04-03T03:45:09.695Z,7.80
2019-04-03T03:47:13.771Z,7.80
2019-04-03T03:49:18.455Z,7.90
2019-04-03T03:51:23.107Z,7.90
2019-04-03T03:53:28.404Z,7.90
2019-04-03T03:55:33.236Z,7.80
2019-04-03T03:57:39.679Z,7.80
2019-04-03T03:59:43.869Z,7.80
2019-04-03T04:01:48.789Z,7.80
2019-04-03T04:03:53.037Z,7.80
2019-04-03T04:05:57.139Z,7.80
2019-04-03T04:08:01.147Z,7.70
2019-04-03T04:10:06.486Z,7.70
2019-04-03T04:12:10.748Z,7.70
2019-04-03T04:14:14.997Z,7.70
2019-04-03T04:16:19.651Z,7.70
2019-04-03T04:18:25.064Z,7.70
2019-04-03T04:20:29.410Z,7.70
2019-04-03T04:22:33.863Z,7.70
2019-04-03T04:24:38.223Z,7.60
2019-04-03T04:26:42.861Z,7.70
2019-04-03T04:28:46.693Z,7.70
2019-04-03T04:30:50.615Z,7.70
2019-04-03T04:32:54.450Z,7.70
2019-04-03T04:34:58.290Z,7.70
2019-04-03T04:37:03.061Z,7.70
2019-04-03T04:39:08.950Z,7.70
2019-04-03T04:41:12.844Z,7.70
2019-04-03T04:43:16.680Z,7.80
2019-04-03T04:45:20.561Z,7.80
2019-04-03T04:47:24.645Z,7.80
2019-04-03T04:49:28.848Z,7.80
2019-04-03T04:51:32.848Z,7.90
2019-04-03T04:53:36.911Z,7.90
2019-04-03T04:55:40.975Z,7.90
2019-04-03T04:57:44.866Z,8.00
2019-04-03T04:59:48.712Z,8.00
2019-04-03T05:01:52.708Z,8.10
2019-04-03T05:03:56.681Z,8.10
2019-04-03T05:06:00.547Z,8.10
2019-04-03T05:08:04.794Z,8.20
2019-04-03T05:10:08.598Z,8.20
2019-04-03T05:12:12.696Z,8.20
2019-04-03T05:14:18.007Z,8.30
2019-04-03T05:16:24.540Z,8.40
2019-04-03T05:18:29.309Z,8.40
2019-04-03T05:20:33.503Z,8.50
2019-04-03T05:22:37.385Z,8.50
2019-04-03T05:24:41.230Z,8.60
2019-04-03T05:26:45.239Z,8.60
2019-04-03T05:28:55.845Z,8.70
2019-04-03T05:30:56.090Z,8.70
2019-04-03T05:33:21.660Z,8.70
2019-04-03T05:35:27.036Z,8.80
2019-04-03T05:37:50.332Z,8.80
2019-04-03T05:39:55.545Z,8.80
2019-04-03T05:41:59.768Z,8.80
2019-04-03T05:44:04.228Z,8.90
2019-04-03T05:46:08.370Z,8.90
2019-04-03T05:48:13.577Z,8.90
2019-04-03T05:50:17.917Z,8.90
2019-04-03T05:52:21.938Z,8.90
2019-04-03T05:54:25.904Z,9.00
2019-04-03T05:56:29.778Z,9.00
2019-04-03T05:58:33.661Z,9.00
2019-04-03T06:00:38.180Z,9.10
2019-04-03T06:02:42.699Z,9.10
2019-04-03T06:04:46.876Z,9.10
2019-04-03T06:06:50.848Z,9.10
2019-04-03T06:08:57.723Z,9.20
2019-04-03T06:11:03.532Z,9.20
2019-04-03T06:13:07.138Z,9.20
2019-04-03T06:15:10.980Z,9.20
2019-04-03T06:17:14.818Z,9.30
2019-04-03T06:19:19.272Z,9.30
2019-04-03T06:21:23.128Z,9.30
2019-04-03T06:23:27.061Z,9.40
2019-04-03T06:25:31.374Z,9.40
2019-04-03T06:27:35.713Z,9.40
2019-04-03T06:29:39.606Z,9.50
2019-04-03T06:31:43.497Z,9.50
2019-04-03T06:33:47.631Z,9.60
2019-04-03T06:35:51.579Z,9.60
2019-04-03T06:37:55.495Z,9.70
2019-04-03T06:40:03.301Z,9.80
2019-04-03T06:42:07.046Z,9.90
2019-04-03T06:44:10.938Z,9.90
2019-04-03T06:46:14.783Z,10.00
2019-04-03T06:48:18.661Z,10.10
2019-04-03T06:50:22.531Z,10.20
2019-04-03T06:52:26.365Z,10.20
2019-04-03T06:54:31.920Z,10.30
2019-04-03T06:56:35.881Z,10.40
2019-04-03T06:58:40.321Z,10.40
2019-04-03T07:00:45.274Z,10.50
2019-04-03T07:02:49.909Z,10.60
2019-04-03T07:04:53.813Z,10.70
2019-04-03T07:06:57.677Z,10.80
2019-04-03T07:09:01.606Z,10.80
2019-04-03T07:11:07.125Z,10.90
2019-04-03T07:13:11.023Z,10.90
2019-04-03T07:15:14.990Z,11.00
2019-04-03T07:17:19.322Z,11.00
2019-04-03T07:19:23.526Z,11.10
2019-04-03T07:21:27.761Z,11.20
2019-04-03T07:23:32.010Z,11.20
2019-04-03T07:25:35.962Z,11.20
2019-04-03T07:27:41.771Z,11.20
2019-04-03T07:29:46.876Z,11.30
2019-04-03T07:31:50.866Z,11.30
2019-04-03T07:33:57.409Z,11.40
2019-04-03T07:36:00.402Z,11.50
2019-04-03T07:38:04.254Z,11.50
2019-04-03T07:40:08.416Z,11.50
2019-04-03T07:42:12.251Z,11.60
2019-04-03T07:44:16.543Z,11.60
2019-04-03T07:46:20.427Z,11.70
2019-04-03T07:48:24.340Z,11.70
2019-04-03T07:50:28.220Z,11.70
2019-04-03T07:52:32.095Z,11.80
2019-04-03T07:54:35.965Z,11.80
2019-04-03T07:56:40.181Z,11.90
2019-04-03T07:58:44.415Z,12.00
2019-04-03T08:00:48.384Z,12.00
2019-04-03T08:02:52.391Z,12.00
2019-04-03T08:04:59.451Z,12.10
2019-04-03T08:07:01.935Z,12.10
2019-04-03T08:09:09.781Z,12.20
2019-04-03T08:11:14.964Z,12.20
2019-04-03T08:13:19.414Z,12.30
2019-04-03T08:15:23.275Z,12.40
2019-04-03T08:17:27.143Z,12.40
2019-04-03T08:19:31.451Z,12.50
2019-04-03T08:21:35.429Z,12.50
2019-04-03T08:23:39.346Z,12.50
2019-04-03T08:25:47.228Z,12.50
2019-04-03T08:27:48.734Z,12.60
2019-04-03T08:29:52.646Z,12.60
2019-04-03T08:31:56.510Z,12.50
2019-04-03T08:34:00.640Z,12.70
2019-04-03T08:36:07.216Z,12.80
2019-04-03T08:38:12.407Z,12.90
2019-04-03T08:40:16.186Z,12.90
2019-04-03T08:42:20.098Z,12.90
2019-04-03T08:44:23.933Z,13.00
2019-04-03T08:46:27.813Z,13.00
2019-04-03T08:48:31.826Z,12.90
2019-04-03T08:50:35.772Z,13.00
2019-04-03T08:52:39.873Z,13.00
2019-04-03T08:54:43.984Z,13.00
2019-04-03T08:56:49.000Z,13.00
2019-04-03T08:58:56.506Z,13.10
2019-04-03T09:00:58.852Z,13.20
2019-04-03T09:03:04.082Z,13.30
2019-04-03T09:05:08.642Z,13.40
2019-04-03T09:07:12.489Z,13.40
2019-04-03T09:09:16.406Z,13.50
2019-04-03T09:11:20.319Z,13.60
2019-04-03T09:13:24.336Z,13.60
2019-04-03T09:15:28.692Z,13.70
2019-04-03T09:17:34.051Z,13.80
2019-04-03T09:19:40.613Z,13.90
2019-04-03T09:21:45.350Z,14.10
2019-04-03T09:23:49.446Z,14.30
2019-04-03T09:25:53.282Z,14.40
2019-04-03T09:27:57.240Z,14.50
2019-04-03T09:30:01.092Z,14.60
2019-04-03T09:32:05.140Z,14.70
2019-04-03T09:34:12.214Z,14.90
2019-04-03T09:36:17.516Z,14.90
2019-04-03T09:38:21.379Z,14.90
2019-04-03T09:40:25.375Z,15.00
2019-04-03T09:42:29.306Z,15.20
2019-04-03T09:44:33.204Z,15.20
2019-04-03T09:46:37.052Z,15.30
2019-04-03T09:48:41.268Z,15.50
2019-04-03T09:50:46.793Z,15.50
2019-04-03T09:52:54.144Z,15.60
2019-04-03T09:54:58.042Z,15.60
2019-04-03T09:57:04.857Z,15.70
2019-04-03T09:59:08.205Z,15.80
2019-04-03T10:01:15.744Z,15.90
2019-04-03T10:03:18.137Z,16.00
2019-04-03T10:05:22.384Z,16.10
2019-04-03T10:07:26.564Z,16.20
2019-04-03T10:09:30.525Z,16.30
2019-04-03T10:11:34.603Z,16.40
2019-04-03T10:13:38.526Z,16.50
2019-04-03T10:15:42.590Z,16.70
2019-04-03T10:17:46.486Z,16.80
2019-04-03T10:19:50.415Z,16.80
2019-04-03T10:21:54.286Z,16.90
2019-04-03T10:24:00.007Z,17.00
2019-04-03T10:26:03.847Z,17.10
2019-04-03T10:28:07.900Z,17.20
2019-04-03T10:30:14.528Z,17.30
2019-04-03T10:32:18.431Z,17.50
2019-04-03T10:34:22.454Z,17.60
2019-04-03T10:36:26.341Z,17.70
2019-04-03T10:38:30.703Z,17.80
2019-04-03T10:40:34.568Z,17.80
2019-04-03T10:42:38.466Z,18.00
2019-04-03T10:44:42.478Z,18.20
2019-04-03T10:46:47.795Z,18.30
2019-04-03T10:48:52.133Z,18.40
2019-04-03T10:50:56.289Z,18.50
2019-04-03T10:53:00.454Z,18.50
2019-04-03T10:55:07.038Z,18.50
2019-04-03T10:57:10.875Z,18.60
2019-04-03T10:59:17.938Z,18.60
2019-04-03T11:01:20.582Z,18.60
2019-04-03T11:03:26.356Z,18.60
2019-04-03T11:05:30.802Z,18.70
2019-04-03T11:07:34.730Z,18.80
2019-04-03T11:09:39.038Z,18.80
2019-04-03T11:11:43.764Z,18.90
2019-04-03T11:13:48.007Z,19.10
2019-04-03T11:15:51.869Z,19.30
2019-04-03T11:17:55.815Z,19.40
2019-04-03T11:20:00.125Z,19.50
2019-04-03T11:22:04.077Z,19.60
2019-04-03T11:24:08.130Z,19.80
2019-04-03T11:26:12.250Z,19.90
2019-04-03T11:28:16.198Z,19.90
2019-04-03T11:30:55.509Z,20.10
2019-04-03T11:32:26.117Z,20.00
2019-04-03T11:34:30.048Z,20.30
2019-04-03T11:36:33.912Z,20.30
2019-04-03T11:38:37.716Z,20.30
2019-04-03T11:40:41.806Z,20.40
2019-04-03T11:42:46.042Z,20.60
2019-04-03T11:44:53.039Z,20.90
2019-04-03T11:46:57.039Z,20.90
2019-04-03T11:49:01.136Z,20.90
2019-04-03T11:51:05.371Z,21.00
2019-04-03T11:53:09.363Z,21.10
2019-04-03T11:55:13.726Z,21.10
2019-04-03T11:57:18.027Z,21.10
2019-04-03T11:59:24.055Z,21.20
2019-04-03T12:01:27.481Z,21.30
2019-04-03T12:03:31.369Z,21.30
2019-04-03T12:05:35.263Z,21.10
2019-04-03T12:07:39.121Z,21.20
2019-04-03T12:09:43.055Z,21.10
2019-04-03T12:11:46.955Z,21.20
2019-04-03T12:13:50.824Z,21.20
2019-04-03T12:15:57.991Z,21.50
2019-04-03T12:18:01.151Z,21.70
2019-04-03T12:20:09.192Z,21.80
2019-04-03T12:22:13.080Z,22.00
2019-04-03T12:24:17.096Z,22.00
2019-04-03T12:26:21.368Z,22.20
2019-04-03T12:28:25.227Z,22.40
2019-04-03T12:30:29.317Z,22.50
2019-04-03T12:32:39.295Z,22.40
2019-04-03T12:34:38.781Z,22.40
2019-04-03T12:36:43.479Z,22.50
2019-04-03T12:38:48.307Z,22.50
2019-04-03T12:40:52.345Z,22.60
2019-04-03T12:42:56.443Z,22.70
2019-04-03T12:45:00.384Z,22.70
2019-04-03T12:47:05.628Z,22.70
2019-04-03T12:49:09.776Z,22.80
2019-04-03T12:51:13.617Z,22.90
2019-04-03T12:53:17.465Z,23.10
2019-04-03T12:55:22.998Z,23.20
2019-04-03T12:57:32.383Z,23.20
2019-04-03T12:59:35.386Z,23.50
2019-04-03T13:01:39.275Z,23.90
2019-04-03T13:03:43.108Z,24.00
2019-04-03T13:05:49.026Z,24.10
2019-04-03T13:07:52.630Z,24.00
2019-04-03T13:09:56.827Z,24.10
2019-04-03T13:12:00.822Z,23.80
2019-04-03T13:14:04.893Z,24.00
2019-04-03T13:16:10.272Z,24.70
2019-04-03T13:18:14.291Z,24.80
2019-04-03T13:20:37.648Z,24.80
2019-04-03T13:22:43.170Z,25.00
2019-04-03T13:24:48.292Z,25.20
2019-04-03T13:26:52.913Z,24.70
2019-04-03T13:28:56.922Z,24.80
2019-04-03T13:31:00.889Z,24.90
2019-04-03T13:33:06.583Z,25.00
2019-04-03T13:35:14.591Z,25.40
2019-04-03T13:37:17.777Z,25.30
2019-04-03T13:39:21.958Z,25.20
2019-04-03T13:41:25.931Z,25.20
2019-04-03T13:43:29.782Z,24.90
2019-04-03T13:45:33.716Z,25.00
2019-04-03T13:47:39.734Z,25.10
2019-04-03T13:49:43.686Z,25.00
2019-04-03T13:51:47.585Z,25.30
2019-04-03T13:53:53.046Z,25.50
2019-04-03T13:55:57.211Z,25.40
2019-04-03T13:58:01.225Z,25.10
2019-04-03T14:00:18.720Z,25.10
2019-04-03T14:02:13.210Z,24.90
2019-04-03T14:04:18.112Z,25.10
2019-04-03T14:06:22.003Z,25.30
2019-04-03T14:08:25.842Z,24.70
2019-04-03T14:10:29.779Z,24.40
2019-04-03T14:12:36.545Z,24.60
2019-04-03T14:14:39.590Z,24.30
2019-04-03T14:16:43.538Z,24.30
2019-04-03T14:18:49.525Z,23.90
2019-04-03T14:20:55.321Z,23.70
2019-04-03T14:22:58.739Z,23.50
2019-04-03T14:25:02.976Z,23.50
2019-04-03T14:27:18.851Z,23.40
2019-04-03T14:29:13.499Z,23.30
2019-04-03T14:31:18.652Z,23.40
2019-04-03T14:33:25.090Z,23.60
2019-04-03T14:35:50.364Z,23.90
2019-04-03T14:37:34.061Z,24.30
2019-04-03T14:39:40.117Z,24.30
2019-04-03T14:41:43.457Z,24.40
2019-04-03T14:43:47.487Z,24.50
2019-04-03T14:45:51.646Z,24.80
2019-04-03T14:47:55.978Z,25.10
2019-04-03T14:50:00.631Z,24.60
2019-04-03T14:52:06.345Z,24.90
2019-04-03T14:54:10.227Z,25.10
2019-04-03T14:56:14.076Z,24.80
2019-04-03T14:58:17.961Z,25.00
2019-04-03T15:00:27.390Z,24.80
2019-04-03T15:02:27.411Z,24.60
2019-04-03T15:04:36.073Z,24.90
2019-04-03T15:06:36.822Z,24.40
2019-04-03T15:08:40.717Z,24.70
2019-04-03T15:10:44.607Z,24.70
2019-04-03T15:12:48.934Z,25.00
2019-04-03T15:14:54.504Z,24.70
2019-04-03T15:16:58.407Z,24.60
2019-04-03T15:19:02.705Z,25.00
2019-04-03T15:21:06.738Z,25.10
2019-04-03T15:23:10.629Z,25.20
2019-04-03T15:25:15.824Z,25.30
2019-04-03T15:27:20.203Z,24.80
2019-04-03T15:29:24.041Z,24.70
2019-04-03T15:31:27.966Z,24.60
2019-04-03T15:33:31.855Z,24.10
2019-04-03T15:35:37.124Z,23.80
2019-04-03T15:37:42.407Z,23.40
2019-04-03T15:39:50.645Z,23.30
2019-04-03T15:41:52.345Z,23.30
2019-04-03T15:43:56.696Z,23.50
2019-04-03T15:46:00.835Z,23.30
2019-04-03T15:48:07.566Z,23.30
2019-04-03T15:50:15.290Z,23.00
2019-04-03T15:52:19.315Z,22.80
2019-04-03T15:54:25.812Z,22.50
2019-04-03T15:56:29.006Z,22.40
2019-04-03T15:58:33.023Z,22.10
2019-04-03T16:00:37.079Z,22.00
2019-04-03T16:02:44.371Z,21.80
2019-04-03T16:04:46.585Z,21.60
2019-04-03T16:06:50.633Z,21.60
2019-04-03T16:08:54.655Z,21.30
2019-04-03T16:10:58.928Z,21.10
2019-04-03T16:13:03.264Z,21.10
2019-04-03T16:15:09.228Z,21.10
2019-04-03T16:17:13.649Z,21.00
2019-04-03T16:19:17.614Z,20.80
2019-04-03T16:21:23.754Z,20.60
2019-04-03T16:23:27.902Z,20.40
2019-04-03T16:25:32.540Z,20.60
2019-04-03T16:27:36.505Z,20.50
2019-04-03T16:29:41.336Z,20.40
2019-04-03T16:31:46.064Z,20.40
2019-04-03T16:33:50.124Z,20.30
2019-04-03T16:35:54.077Z,20.40
2019-04-03T16:37:58.030Z,20.10
2019-04-03T16:40:04.158Z,20.00
2019-04-03T16:42:07.441Z,19.90
2019-04-03T16:44:11.402Z,19.90
2019-04-03T16:46:15.680Z,19.90
2019-04-03T16:48:19.716Z,19.80
2019-04-03T16:50:26.146Z,19.60
2019-04-03T16:52:30.331Z,19.70
2019-04-03T16:54:34.406Z,19.70
2019-04-03T16:56:39.479Z,19.60
2019-04-03T16:58:43.425Z,19.50
2019-04-03T17:00:47.268Z,19.40
2019-04-03T17:02:51.231Z,19.40
2019-04-03T17:04:55.170Z,19.30
2019-04-03T17:06:59.369Z,19.10
2019-04-03T17:09:05.525Z,19.20
2019-04-03T17:11:09.921Z,19.10
2019-04-03T17:13:15.014Z,18.90
2019-04-03T17:15:19.155Z,18.80
2019-04-03T17:17:23.055Z,18.70
2019-04-03T17:19:26.935Z,18.70
2019-04-03T17:21:36.817Z,18.60
2019-04-03T17:23:36.389Z,18.50
2019-04-03T17:25:47.617Z,18.50
2019-04-03T17:27:55.124Z,18.40
2019-04-03T17:29:51.328Z,18.30
2019-04-03T17:31:58.141Z,18.20
2019-04-03T17:34:00.753Z,18.20
2019-04-03T17:36:04.706Z,18.20
2019-04-03T17:38:08.696Z,18.10
2019-04-03T17:40:13.361Z,18.10
2019-04-03T17:42:17.383Z,18.00
2019-04-03T17:44:21.282Z,17.90
2019-04-03T17:46:25.191Z,17.80
2019-04-03T17:48:29.054Z,17.70
2019-04-03T17:50:32.940Z,17.60
2019-04-03T17:52:37.107Z,17.50
2019-04-03T17:54:41.107Z,17.40
2019-04-03T17:56:45.097Z,17.30
2019-04-03T17:58:49.021Z,17.30
2019-04-03T18:00:52.951Z,17.20
2019-04-03T18:02:56.949Z,17.10
2019-04-03T18:05:00.844Z,17.00
2019-04-03T18:07:04.851Z,17.00
2019-04-03T18:09:09.494Z,16.90
2019-04-03T18:11:13.873Z,16.80
2019-04-03T18:13:17.794Z,16.90
2019-04-03T18:15:21.736Z,16.80
2019-04-03T18:17:25.806Z,16.70
2019-04-03T18:19:37.355Z,16.70
2019-04-03T18:21:35.351Z,16.70
2019-04-03T18:23:39.235Z,16.70
2019-04-03T18:25:44.123Z,16.50
2019-04-03T18:27:48.020Z,16.50
2019-04-03T18:29:51.982Z,16.50
2019-04-03T18:31:55.910Z,16.50
2019-04-03T18:33:59.838Z,16.40
2019-04-03T18:36:03.926Z,16.40
2019-04-03T18:38:08.543Z,16.40
2019-04-03T18:40:15.068Z,16.20
2019-04-03T18:42:18.632Z,16.10
2019-04-03T18:44:26.024Z,16.00
2019-04-03T18:46:32.408Z,16.00
2019-04-03T18:48:34.053Z,15.90
2019-04-03T18:50:37.949Z,15.90
2019-04-03T18:52:41.837Z,15.90
2019-04-03T18:54:45.699Z,15.80
2019-04-03T18:56:49.661Z,15.70
2019-04-03T18:58:56.375Z,15.80
2019-04-03T19:01:01.775Z,15.80
2019-04-03T19:03:06.482Z,15.80
2019-04-03T19:05:13.970Z,15.90
2019-04-03T19:07:16.847Z,15.80
2019-04-03T19:09:21.354Z,15.80
2019-04-03T19:11:25.615Z,15.70
2019-04-03T19:13:29.639Z,15.70
2019-04-03T19:15:33.653Z,15.60
2019-04-03T19:17:38.145Z,15.60
2019-04-03T19:19:42.041Z,15.60
2019-04-03T19:21:46.067Z,15.50
2019-04-03T19:23:51.987Z,15.50
2019-04-03T19:25:58.113Z,15.50
2019-04-03T19:28:04.014Z,15.50
2019-04-03T19:30:08.879Z,15.40
2019-04-03T19:32:12.830Z,15.40
2019-04-03T19:34:19.900Z,15.30
2019-04-03T19:36:22.476Z,15.20
2019-04-03T19:38:26.383Z,15.20
2019-04-03T19:40:30.486Z,15.20
2019-04-03T19:42:34.562Z,15.30
2019-04-03T19:44:38.436Z,15.20
2019-04-03T19:46:42.472Z,15.20
2019-04-03T19:48:46.687Z,15.10
2019-04-03T19:50:50.844Z,15.10
2019-04-03T19:52:55.125Z,15.10
2019-04-03T19:54:59.520Z,15.00
2019-04-03T19:57:03.655Z,15.00
2019-04-03T19:59:07.886Z,14.90
2019-04-03T20:01:11.823Z,14.80
2019-04-03T20:03:16.022Z,14.80
2019-04-03T20:05:19.867Z,14.70
2019-04-03T20:07:26.759Z,14.70
2019-04-03T20:09:34.926Z,14.70
2019-04-03T20:11:42.935Z,14.60
2019-04-03T20:13:47.269Z,14.50
2019-04-03T20:15:53.793Z,14.30
2019-04-03T20:18:00.542Z,14.30
2019-04-03T20:20:06.301Z,14.30
2019-04-03T20:22:10.267Z,14.30
2019-04-03T20:24:14.283Z,14.10
2019-04-03T20:26:18.154Z,14.00
2019-04-03T20:28:24.166Z,14.00
2019-04-03T20:30:28.046Z,13.90
2019-04-03T20:32:32.027Z,14.00
2019-04-03T20:34:35.884Z,13.90
2019-04-03T20:36:39.922Z,13.90
2019-04-03T20:38:44.703Z,13.80
2019-04-03T20:40:51.594Z,13.80
2019-04-03T20:42:56.863Z,13.70
2019-04-03T20:45:01.007Z,13.80
2019-04-03T20:47:04.981Z,13.80
2019-04-03T20:49:08.803Z,13.70
2019-04-03T20:51:12.685Z,13.70
2019-04-03T20:53:17.173Z,13.70
2019-04-03T20:55:24.764Z,13.70
2019-04-03T20:57:27.282Z,13.70
2019-04-03T20:59:31.387Z,13.60
2019-04-03T21:01:35.517Z,13.60
2019-04-03T21:03:39.993Z,13.60
2019-04-03T21:05:48.781Z,13.60
2019-04-03T21:07:56.406Z,13.60
2019-04-03T21:10:04.832Z,13.50
2019-04-03T21:12:12.465Z,13.50
2019-04-03T21:14:19.885Z,13.50
2019-04-03T21:16:33.245Z,13.50
2019-04-03T21:18:36.219Z,13.50
2019-04-03T21:20:43.672Z,13.50
2019-04-03T21:22:51.736Z,13.40
2019-04-03T21:24:56.609Z,13.40
2019-04-03T21:27:00.581Z,13.40
2019-04-03T21:29:04.494Z,13.40
2019-04-03T21:31:09.468Z,13.40
2019-04-03T21:33:17.252Z,13.40
2019-04-03T21:35:26.230Z,13.30
2019-04-03T21:37:30.053Z,13.30
2019-04-03T21:39:34.082Z,13.30
2019-04-03T21:41:38.237Z,13.30
2019-04-03T21:46:10.562Z,13.20
2019-04-03T21:48:14.589Z,13.30
2019-04-03T21:50:19.359Z,13.20
2019-04-03T21:52:24.273Z,13.20
2019-04-03T21:54:54.835Z,13.20
2019-04-03T21:57:06.924Z,13.20
2019-04-03T21:59:11.405Z,13.20
2019-04-03T22:01:21.006Z,13.20
2019-04-03T22:03:25.038Z,13.20
2019-04-03T22:05:29.039Z,13.20
2019-04-03T22:07:32.962Z,13.20
2019-04-03T22:09:36.862Z,13.20
2019-04-03T22:11:40.773Z,13.20
2019-04-03T22:13:44.616Z,13.10
2019-04-03T22:15:48.519Z,13.10
2019-04-03T22:17:52.948Z,13.00
2019-04-03T22:19:58.447Z,13.00
2019-04-03T22:22:03.080Z,13.00
2019-04-03T22:24:07.767Z,13.00
2019-04-03T22:26:11.738Z,13.00
2019-04-03T22:28:16.060Z,12.90
2019-04-03T22:30:20.007Z,12.90
2019-04-03T22:32:25.418Z,12.90
2019-04-03T22:34:29.917Z,12.90
2019-04-03T22:36:34.457Z,12.80
2019-04-03T22:38:38.417Z,12.90
2019-04-03T22:40:42.349Z,12.90
2019-04-03T22:42:46.370Z,12.90
2019-04-03T22:44:50.377Z,12.80
2019-04-03T22:46:54.693Z,12.90
2019-04-03T22:49:02.877Z,12.90
2019-04-03T22:51:07.453Z,12.90
2019-04-03T22:53:11.373Z,12.80
2019-04-03T22:55:15.486Z,12.80
2019-04-03T22:57:20.196Z,12.70
2019-04-03T22:59:24.462Z,12.70
2019-04-03T23:01:29.854Z,12.70
2019-04-03T23:03:34.464Z,12.60
2019-04-03T23:05:38.394Z,12.60
2019-04-03T23:07:42.271Z,12.60
2019-04-03T23:09:46.321Z,12.50
2019-04-03T23:11:50.213Z,12.50
2019-04-03T23:13:54.373Z,12.60
2019-04-03T23:15:58.601Z,12.40
2019-04-03T23:18:02.474Z,12.40
2019-04-03T23:20:06.791Z,12.40
2019-04-03T23:22:10.662Z,12.30
2019-04-03T23:24:14.543Z,12.30
2019-04-03T23:26:18.492Z,12.30
2019-04-03T23:28:22.343Z,12.20
2019-04-03T23:30:26.815Z,12.10
2019-04-03T23:32:30.697Z,12.20
2019-04-03T23:34:34.570Z,12.10
2019-04-03T23:36:38.429Z,12.10
2019-04-03T23:38:42.270Z,12.00
2019-04-03T23:40:46.197Z,12.10
2019-04-03T23:42:50.075Z,12.00
2019-04-03T23:44:54.001Z,12.00
2019-04-03T23:46:57.858Z,12.00
2019-04-03T23:49:01.739Z,12.00
2019-04-03T23:51:05.647Z,11.90
2019-04-03T23:53:09.509Z,11.90
2019-04-03T23:55:13.428Z,11.90
2019-04-03T23:57:17.276Z,11.90
2019-04-03T23:59:21.146Z,11.90
